Time;durP1;ratioP1;P1;durP2;ratioP2;P2;SDS_P1;SDS_P2;PMS_P1;PMS_P2;Temp;Humidity;BMP_temperature;BMP_pressure;BME280_temperature;BME280_humidity;BME280_pressure;Samples;Min_cycle;Max_cycle;Signal;HPM_P1;HPM_P2
2023/03/05 00:01:37;;;;;;;32.28;25.42;;;;;;;7.23;65.87;99192.84;4994867;28;20037;-90
2023/03/05 00:04:06;;;;;;;35.10;25.17;;;;;;;6.46;65.80;99069.00;4994591;28;20037;-89
2023/03/05 00:06:32;;;;;;;31.20;24.50;;;;;;;6.45;65.84;99069.19;4994789;28;20046;-90
2023/03/05 00:08:59;;;;;;;30.90;24.23;;;;;;;6.90;65.76;99148.25;4992300;28;20116;-90
2023/03/05 00:11:28;;;;;;;31.23;24.67;;;;;;;6.82;65.77;99144.78;4993236;28;20104;-89
2023/03/05 00:13:55;;;;;;;32.58;24.65;;;;;;;7.15;65.93;99184.97;4994659;28;20026;-90
2023/03/05 00:16:21;;;;;;;35.58;25.98;;;;;;;6.95;65.94;99161.69;4995030;28;20026;-90
2023/03/05 00:18:47;;;;;;;34.45;25.85;;;;;;;7.14;65.68;99189.41;4994618;28;20030;-89
2023/03/05 00:21:23;;;;;;;38.05;27.70;;;;;;;5.56;65.09;98928.34;4994313;28;20033;-90
2023/03/05 00:23:49;;;;;;;41.58;29.42;;;;;;;6.92;65.93;99143.66;4993192;28;20031;-90
2023/03/05 00:26:20;;;;;;;35.70;26.52;;;;;;;6.40;65.41;99072.28;4992874;28;20520;-90
2023/03/05 00:28:51;;;;;;;33.35;25.00;;;;;;;6.38;65.88;99090.81;4993051;28;20041;-90
2023/03/05 00:31:19;;;;;;;35.05;26.98;;;;;;;6.08;65.80;99048.66;4993074;28;20034;-89
2023/03/05 00:33:45;;;;;;;32.20;25.00;;;;;;;6.84;65.82;99171.69;4994355;28;20096;-89
2023/03/05 00:36:10;;;;;;;36.92;25.48;;;;;;;6.05;66.37;99070.75;4993202;28;20030;-89
2023/03/05 00:38:36;;;;;;;33.65;24.98;;;;;;;6.13;65.96;99047.19;4994178;28;20428;-89
2023/03/05 00:41:02;;;;;;;37.05;25.77;;;;;;;6.32;65.83;99077.53;4992891;28;20081;-91
2023/03/05 00:43:28;;;;;;;35.15;25.05;;;;;;;6.89;65.75;99164.97;4994260;28;20026;-90
2023/03/05 00:45:53;;;;;;;32.67;25.25;;;;;;;6.34;66.47;99093.91;4992790;28;20081;-90
2023/03/05 00:48:19;;;;;;;38.85;27.48;;;;;;;6.63;66.40;99123.13;4994095;28;20030;-90
2023/03/05 00:50:44;;;;;;;33.70;25.17;;;;;;;6.84;66.27;99172.50;4992619;28;20026;-90
2023/03/05 00:53:10;;;;;;;46.63;33.20;;;;;;;6.42;66.26;99107.03;4994109;28;20046;-90
2023/03/05 00:55:35;;;;;;;38.70;27.92;;;;;;;4.87;65.63;98859.59;4993916;28;20054;-90
2023/03/05 00:58:01;;;;;;;35.60;26.52;;;;;;;6.19;65.94;99058.81;4993823;28;20113;-90
2023/03/05 01:00:27;;;;;;;32.97;24.95;;;;;;;5.97;66.17;99021.78;4993623;28;20023;-90
2023/03/05 01:02:52;;;;;;;39.47;26.98;;;;;;;5.96;66.22;99027.19;4993565;28;20030;-88
2023/03/05 01:05:18;;;;;;;33.78;25.30;;;;;;;5.97;66.16;99034.88;4993428;28;20022;-89
2023/03/05 01:07:43;;;;;;;34.92;27.58;;;;;;;6.27;66.07;99074.56;4993522;28;20448;-91
2023/03/05 01:10:10;;;;;;;31.98;24.95;;;;;;;6.37;66.32;99081.28;4992287;28;20113;-91
2023/03/05 01:12:35;;;;;;;31.95;26.20;;;;;;;5.76;65.81;98997.78;4992256;28;20030;-89
2023/03/05 01:15:01;;;;;;;31.98;24.75;;;;;;;4.86;65.23;98844.06;4993668;28;20022;-90
2023/03/05 01:17:26;;;;;;;34.17;26.35;;;;;;;5.91;66.05;99011.91;4993392;28;20460;-90
2023/03/05 01:19:52;;;;;;;32.60;25.17;;;;;;;6.63;65.74;99135.41;4991774;28;20092;-89
2023/03/05 01:22:17;;;;;;;33.35;24.65;;;;;;;5.66;65.69;98979.59;4993436;28;20022;-91
2023/03/05 01:24:42;;;;;;;34.20;24.42;;;;;;;5.51;66.24;98951.56;4993019;28;20053;-91
2023/03/05 01:27:08;;;;;;;65.32;41.58;;;;;;;6.30;66.17;99092.59;4993073;28;20031;-91
2023/03/05 01:29:35;;;;;;;53.15;35.13;;;;;;;6.05;65.92;99045.38;4993294;28;20101;-92
2023/03/05 01:32:01;;;;;;;35.88;26.45;;;;;;;6.31;66.12;99100.28;4993404;28;20088;-91
2023/03/05 01:34:26;;;;;;;35.13;26.42;;;;;;;5.39;66.22;98927.47;4992904;28;20022;-91
2023/03/05 01:36:51;;;;;;;33.17;25.42;;;;;;;5.84;65.97;99000.41;5007850;28;20024;-91
2023/03/05 01:39:17;;;;;;;30.17;23.90;;;;;;;6.48;66.20;99100.31;4993079;28;20037;-90
2023/03/05 01:41:42;;;;;;;29.85;23.35;;;;;;;6.20;65.93;99068.34;4991748;28;20484;-90
2023/03/05 01:44:23;;;;;;;33.15;24.70;;;;;;;5.82;66.08;99033.81;4992824;28;20030;-90
2023/03/05 01:46:49;;;;;;;34.40;26.10;;;;;;;5.80;65.70;99017.44;4991377;28;20420;-90
2023/03/05 01:49:17;;;;;;;34.42;27.17;;;;;;;5.80;65.79;99020.06;4992773;28;20018;-91
2023/03/05 01:51:47;;;;;;;34.92;29.10;;;;;;;6.43;66.25;99129.66;4991711;28;20018;-91
2023/03/05 01:54:16;;;;;;;33.88;26.45;;;;;;;6.21;66.08;99117.16;4991603;28;20149;-91
2023/03/05 01:56:43;;;;;;;33.15;26.80;;;;;;;6.44;66.62;99138.34;4992730;28;20101;-91
2023/03/05 01:59:10;;;;;;;49.75;34.33;;;;;;;5.72;65.85;99013.00;4992407;28;20481;-91
2023/03/05 02:01:41;;;;;;;34.65;25.65;;;;;;;6.47;65.92;99156.38;4990999;28;20022;-91
2023/03/05 02:04:10;;;;;;;34.78;24.20;;;;;;;6.40;65.85;99129.97;4991126;28;20058;-89
2023/03/05 02:06:37;;;;;;;29.15;23.67;;;;;;;6.19;65.66;99098.16;4991445;28;20061;-90
2023/03/05 02:09:03;;;;;;;31.63;22.42;;;;;;;5.31;65.74;98957.06;4992267;28;20022;-90
2023/03/05 02:11:28;;;;;;;30.17;22.65;;;;;;;5.25;66.00;98970.78;4992280;28;20566;-89
2023/03/05 02:13:55;;;;;;;30.80;21.92;;;;;;;6.27;66.02;99133.06;4992327;28;20495;-90
2023/03/05 02:16:20;;;;;;;29.60;22.02;;;;;;;4.86;66.03;98912.88;4992362;28;20506;-90
2023/03/05 02:18:45;;;;;;;30.45;23.27;;;;;;;6.19;65.99;99126.97;4991170;28;20026;-90
2023/03/05 02:21:11;;;;;;;29.42;22.40;;;;;;;5.62;66.12;99033.25;4992495;28;20027;-90
2023/03/05 02:23:38;;;;;;;28.58;21.58;;;;;;;5.85;66.27;99090.31;4992306;28;20022;-90
2023/03/05 02:26:05;;;;;;;30.88;22.75;;;;;;;5.37;66.31;98992.28;4990794;28;20070;-90
2023/03/05 02:28:36;;;;;;;33.50;23.70;;;;;;;5.72;65.85;99070.63;4992472;28;20027;-89
2023/03/05 02:31:18;;;;;;;34.97;24.97;;;;;;;5.46;65.95;99025.34;4992126;28;20018;-89
2023/03/05 02:33:44;;;;;;;49.45;30.45;;;;;;;5.10;66.11;98972.34;4992075;28;20465;-90
2023/03/05 02:36:10;;;;;;;37.88;26.48;;;;;;;5.23;66.02;98985.03;4991049;28;20014;-89
2023/03/05 02:38:37;;;;;;;31.33;22.08;;;;;;;5.47;66.12;99021.75;4991988;28;20076;-89
2023/03/05 02:41:02;;;;;;;31.38;23.63;;;;;;;5.53;65.82;99039.44;4990709;28;20033;-90
2023/03/05 02:43:28;;;;;;;27.77;22.02;;;;;;;5.50;65.92;99021.44;4992015;28;20026;-91
2023/03/05 02:45:53;;;;;;;29.55;20.83;;;;;;;5.15;66.19;98971.88;4992140;28;20026;-91
2023/03/05 02:48:19;;;;;;;34.55;24.25;;;;;;;5.66;66.06;99041.63;4991965;28;20080;-90
2023/03/05 02:50:46;;;;;;;29.98;22.55;;;;;;;5.71;65.83;99068.16;4992181;28;20026;-90
2023/03/05 02:53:11;;;;;;;33.00;24.50;;;;;;;5.61;65.96;99044.72;4990554;28;20037;-90
2023/03/05 02:55:37;;;;;;;31.77;23.30;;;;;;;5.69;65.84;99064.88;4992043;28;20022;-90
2023/03/05 02:58:02;;;;;;;30.13;22.95;;;;;;;5.64;65.64;99043.56;4992255;28;20545;-90
2023/03/05 03:00:28;;;;;;;31.52;24.17;;;;;;;6.15;66.01;99120.41;4993539;28;20447;-90
2023/03/05 03:02:53;;;;;;;30.58;22.98;;;;;;;6.14;65.91;99137.94;4991339;28;20088;-90
2023/03/05 03:05:19;;;;;;;31.73;22.88;;;;;;;4.68;65.63;98928.66;4990527;28;20022;-87
2023/03/05 03:07:44;;;;;;;33.00;24.05;;;;;;;6.00;65.40;99114.97;4992008;28;20022;-90
2023/03/05 03:10:11;;;;;;;28.92;21.80;;;;;;;5.74;65.57;99066.03;4991875;28;20030;-90
2023/03/05 03:12:38;;;;;;;29.48;22.58;;;;;;;6.00;65.11;99107.13;4991918;28;20026;-90
2023/03/05 03:15:04;;;;;;;31.77;22.30;;;;;;;5.53;65.78;99015.88;4991596;28;20045;-90
2023/03/05 03:17:30;;;;;;;30.13;21.25;;;;;;;5.78;65.37;99063.09;4990488;28;20426;-90
2023/03/05 03:19:55;;;;;;;28.70;20.67;;;;;;;5.91;65.14;99129.81;5006904;28;20027;-91
2023/03/05 03:22:20;;;;;;;24.02;20.15;;;;;;;5.65;65.27;99089.75;4990633;28;20073;-91
2023/03/05 03:24:46;;;;;;;28.25;20.23;;;;;;;5.83;65.48;99123.69;4991557;28;20046;-91
2023/03/05 03:27:11;;;;;;;25.95;20.27;;;;;;;5.26;65.33;99019.53;4991595;28;20463;-89
2023/03/05 03:29:37;;;;;;;26.50;20.42;;;;;;;5.92;65.29;99128.03;4991663;28;20487;-90
2023/03/05 03:32:03;;;;;;;25.15;20.17;;;;;;;5.52;65.54;99055.31;4991626;28;20022;-91
2023/03/05 03:34:29;;;;;;;24.83;19.77;;;;;;;5.66;65.52;99075.66;4991604;28;20049;-89
2023/03/05 03:36:54;;;;;;;26.20;20.13;;;;;;;5.12;65.15;98991.31;4991549;28;20058;-89
2023/03/05 03:39:21;;;;;;;32.17;23.40;;;;;;;5.94;65.37;99110.34;4990353;28;20423;-91
2023/03/05 03:41:50;;;;;;;26.13;19.52;;;;;;;5.92;65.47;99120.97;4991606;28;20029;-89
2023/03/05 03:44:17;;;;;;;29.77;21.85;;;;;;;5.84;64.90;99104.38;4993050;28;20018;-89
2023/03/05 03:46:45;;;;;;;27.05;20.42;;;;;;;5.81;65.64;99117.78;4993997;28;20046;-90
2023/03/05 03:49:16;;;;;;;25.08;18.55;;;;;;;5.74;65.51;99117.59;4995053;28;20108;-88
2023/03/05 03:51:42;;;;;;;26.58;21.00;;;;;;;5.49;65.87;99071.34;4995174;28;20029;-88
2023/03/05 03:54:07;;;;;;;28.10;21.33;;;;;;;5.79;65.62;99117.13;4994939;28;20034;-88
2023/03/05 03:56:33;;;;;;;30.92;21.52;;;;;;;5.39;65.58;99074.91;4995319;28;20030;-89
2023/03/05 03:58:58;;;;;;;28.27;20.50;;;;;;;4.74;65.74;98935.88;5001381;28;20484;-90
2023/03/05 04:01:24;;;;;;;28.70;22.10;;;;;;;5.09;65.40;99018.63;5016754;28;20050;-87
2023/03/05 04:03:49;;;;;;;28.42;22.33;;;;;;;5.72;65.59;99103.84;5016893;28;20082;-90
2023/03/05 04:06:14;;;;;;;27.98;21.48;;;;;;;5.33;65.70;99031.03;5017568;28;20014;-88
2023/03/05 04:08:40;;;;;;;27.20;21.50;;;;;;;5.22;65.48;99027.88;5015036;28;20030;-89
2023/03/05 04:11:06;;;;;;;33.33;25.52;;;;;;;5.52;65.34;99073.66;4994603;28;20414;-89
2023/03/05 04:13:31;;;;;;;28.95;22.25;;;;;;;5.42;65.72;99050.22;4994634;28;20038;-90
2023/03/05 04:15:57;;;;;;;29.10;22.98;;;;;;;5.31;65.77;99060.94;4994494;28;20034;-88
2023/03/05 04:18:22;;;;;;;31.88;22.77;;;;;;;5.74;65.57;99110.56;4994601;28;20041;-90
2023/03/05 04:20:48;;;;;;;33.33;25.08;;;;;;;5.77;65.36;99119.09;4994675;28;20438;-89
2023/03/05 04:23:14;;;;;;;34.38;25.73;;;;;;;5.74;65.95;99115.81;4994536;28;20065;-89
2023/03/05 04:25:39;;;;;;;33.80;25.63;;;;;;;5.28;65.77;99056.03;4994122;28;20059;-89
2023/03/05 04:28:05;;;;;;;34.88;25.65;;;;;;;5.47;65.82;99055.78;4994477;28;20561;-89
2023/03/05 04:30:30;;;;;;;34.38;25.10;;;;;;;5.03;65.68;99005.34;4994331;28;20116;-90
2023/03/05 04:32:56;;;;;;;30.95;22.80;;;;;;;5.40;65.80;99086.19;4994352;28;20037;-90
2023/03/05 04:35:22;;;;;;;34.25;25.20;;;;;;;5.48;65.64;99080.19;4993098;28;20403;-90
2023/03/05 04:37:48;;;;;;;32.30;24.52;;;;;;;5.62;66.12;99108.38;4993159;28;20026;-89
2023/03/05 04:40:13;;;;;;;30.30;22.90;;;;;;;4.67;66.03;98989.78;4994415;28;20037;-89
2023/03/05 04:42:39;;;;;;;34.78;25.55;;;;;;;5.13;65.78;99018.31;4994193;28;20026;-91
2023/03/05 04:45:05;;;;;;;38.95;28.17;;;;;;;5.26;65.71;99043.09;4994183;28;20034;-89
2023/03/05 04:47:31;;;;;;;52.33;39.17;;;;;;;5.67;65.68;99095.63;4994049;28;20031;-90
2023/03/05 04:49:56;;;;;;;58.30;44.65;;;;;;;5.18;65.48;99023.88;4993881;28;20052;-89
2023/03/05 04:52:22;;;;;;;54.67;40.88;;;;;;;5.38;65.45;99048.88;4993891;28;20168;-89
2023/03/05 04:54:47;;;;;;;45.95;37.00;;;;;;;4.97;65.63;98988.47;4993244;28;20484;-89
2023/03/05 04:57:13;;;;;;;45.17;38.08;;;;;;;5.47;65.70;99076.75;4993789;28;20026;-90
2023/03/05 04:59:38;;;;;;;41.97;33.40;;;;;;;5.33;65.87;99093.03;4993923;28;20033;-89
2023/03/05 05:02:03;;;;;;;39.17;28.00;;;;;;;5.15;65.95;99066.06;5008623;28;20462;-89
2023/03/05 05:04:29;;;;;;;36.15;27.38;;;;;;;5.55;65.69;99123.09;4993671;28;20062;-89
2023/03/05 05:06:56;;;;;;;34.47;26.73;;;;;;;5.55;65.98;99128.31;4992226;28;20030;-89
2023/03/05 05:09:22;;;;;;;39.92;30.33;;;;;;;5.59;65.63;99120.00;4993635;28;20034;-89
2023/03/05 05:11:48;;;;;;;35.85;29.42;;;;;;;5.29;65.44;99081.22;4993704;28;20109;-89
2023/03/05 05:14:13;;;;;;;47.78;32.38;;;;;;;5.26;65.58;99098.06;4993646;28;20106;-89
2023/03/05 05:16:39;;;;;;;51.97;38.75;;;;;;;5.08;65.37;99048.38;5008539;28;20062;-90
2023/03/05 05:19:04;;;;;;;43.63;33.92;;;;;;;5.59;65.32;99150.59;4993747;28;20133;-89
2023/03/05 05:21:30;;;;;;;45.15;34.05;;;;;;;5.56;65.42;99151.72;4993222;28;20022;-89
2023/03/05 05:23:55;;;;;;;44.03;33.03;;;;;;;5.38;65.49;99107.28;4993217;28;20054;-89
2023/03/05 05:26:20;;;;;;;40.90;30.77;;;;;;;4.96;65.27;99056.66;4993411;28;20034;-90
2023/03/05 05:28:46;;;;;;;43.38;32.03;;;;;;;3.67;65.14;98862.13;4992350;28;20034;-88
2023/03/05 05:31:14;;;;;;;40.10;30.45;;;;;;;5.52;65.29;99144.34;4993276;28;20030;-90
2023/03/05 05:33:39;;;;;;;40.10;29.23;;;;;;;5.55;65.42;99142.22;4993254;28;20141;-89
2023/03/05 05:36:07;;;;;;;41.03;29.65;;;;;;;5.59;65.59;99138.31;4993091;28;20093;-90
2023/03/05 05:38:33;;;;;;;37.03;27.65;;;;;;;4.57;65.23;99015.19;4993388;28;20113;-89
2023/03/05 05:41:03;;;;;;;35.53;27.90;;;;;;;4.83;65.47;99009.16;4993059;28;20458;-89
2023/03/05 05:43:28;;;;;;;34.75;26.73;;;;;;;4.78;65.49;99025.31;4993023;28;20084;-90
2023/03/05 05:45:57;;;;;;;38.95;26.85;;;;;;;4.68;65.62;99011.50;4993071;28;20034;-90
2023/03/05 05:48:23;;;;;;;35.67;27.85;;;;;;;5.07;65.73;99049.34;4993084;28;20038;-90
2023/03/05 05:50:48;;;;;;;42.65;30.38;;;;;;;5.18;65.90;99089.31;4991543;28;20511;-90
2023/03/05 05:53:14;;;;;;;46.35;34.78;;;;;;;5.10;65.59;99079.63;4992772;28;20026;-89
2023/03/05 05:55:40;;;;;;;82.50;50.70;;;;;;;5.61;65.69;99144.22;4992703;28;20025;-89
2023/03/05 05:58:05;;;;;;;99.47;59.50;;;;;;;4.92;65.45;99031.75;4992777;28;20022;-89
2023/03/05 06:00:30;;;;;;;95.72;56.97;;;;;;;5.64;65.54;99143.91;4992600;28;20130;-89
2023/03/05 06:02:56;;;;;;;94.78;56.00;;;;;;;5.21;65.75;99075.94;4991434;28;20467;-90
2023/03/05 06:05:21;;;;;;;76.10;49.15;;;;;;;5.08;65.32;99058.84;5007605;28;20022;-89
2023/03/05 06:07:47;;;;;;;55.90;39.78;;;;;;;4.20;65.55;98895.19;4991471;28;20037;-89
2023/03/05 06:10:12;;;;;;;46.97;34.75;;;;;;;5.27;65.59;99072.72;4991007;28;20024;-88
2023/03/05 06:12:38;;;;;;;42.45;31.58;;;;;;;5.75;65.47;99146.25;4992237;28;20113;-90
2023/03/05 06:15:04;;;;;;;51.70;37.42;;;;;;;5.75;65.82;99130.53;4992362;28;20026;-89
2023/03/05 06:17:30;;;;;;;50.22;36.90;;;;;;;5.80;65.43;99166.75;4992389;28;20030;-89
2023/03/05 06:19:55;;;;;;;61.28;41.47;;;;;;;5.66;65.00;99094.81;4992596;28;20034;-89
2023/03/05 06:22:20;;;;;;;48.92;34.28;;;;;;;6.08;65.50;99146.44;4992485;28;20073;-90
2023/03/05 06:24:46;;;;;;;42.85;32.90;;;;;;;5.66;65.05;99078.28;4992063;28;20058;-90
2023/03/05 06:27:11;;;;;;;38.28;29.42;;;;;;;5.87;65.56;99138.13;4992107;28;20026;-90
2023/03/05 06:29:37;;;;;;;42.83;31.15;;;;;;;5.78;65.44;99079.63;5007177;28;20495;-91
2023/03/05 06:32:03;;;;;;;41.17;31.10;;;;;;;5.25;65.01;98991.72;4992168;28;20034;-90
2023/03/05 06:34:28;;;;;;;51.35;38.08;;;;;;;5.50;64.99;99031.91;4992132;28;20066;-91
2023/03/05 06:36:54;;;;;;;35.90;28.63;;;;;;;5.58;65.49;99026.69;4992001;28;20061;-89
2023/03/05 06:39:19;;;;;;;43.33;32.50;;;;;;;6.23;65.39;99129.13;4991994;28;20474;-90
2023/03/05 06:41:44;;;;;;;41.38;32.67;;;;;;;6.18;65.19;99099.13;4991970;28;20034;-89
2023/03/05 06:44:10;;;;;;;48.22;38.45;;;;;;;6.31;65.23;99105.53;5007104;28;20109;-91
2023/03/05 06:46:39;;;;;;;40.97;32.00;;;;;;;5.96;65.21;99032.41;4992207;28;20026;-91
2023/03/05 06:49:05;;;;;;;51.80;36.60;;;;;;;6.84;64.80;99158.56;4992051;28;20030;-89
2023/03/05 06:51:36;;;;;;;48.58;36.90;;;;;;;6.89;64.61;99156.28;4992070;28;20034;-91
2023/03/05 06:54:08;;;;;;;44.95;33.63;;;;;;;6.99;64.97;99159.56;4992026;28;20503;-89
2023/03/05 06:56:36;;;;;;;47.47;36.03;;;;;;;7.00;64.34;99148.88;4990830;28;20420;-89
2023/03/05 06:59:01;;;;;;;52.88;38.97;;;;;;;6.41;64.91;99055.56;4990750;28;20031;-89
2023/03/05 07:01:27;;;;;;;51.67;41.05;;;;;;;6.14;64.50;98996.41;4991832;28;20038;-89
2023/03/05 07:03:54;;;;;;;57.22;44.15;;;;;;;7.15;64.99;99154.28;4991819;28;20061;-90
2023/03/05 07:06:21;;;;;;;61.15;47.03;;;;;;;7.20;65.00;99156.41;4990400;28;20065;-91
2023/03/05 07:08:47;;;;;;;53.92;42.42;;;;;;;7.27;64.43;99154.78;4991576;28;20041;-89
2023/03/05 07:11:15;;;;;;;55.30;41.67;;;;;;;7.35;64.89;99149.50;4992095;28;20022;-89
2023/03/05 07:13:42;;;;;;;53.92;41.60;;;;;;;6.80;64.60;99055.75;4991671;28;20077;-91
2023/03/05 07:16:12;;;;;;;56.00;42.67;;;;;;;7.42;64.70;99139.97;4991878;28;20492;-89
2023/03/05 07:18:37;;;;;;;57.45;43.92;;;;;;;6.87;65.22;99050.66;4993554;28;20034;-91
2023/03/05 07:21:04;;;;;;;50.88;41.55;;;;;;;7.22;64.89;99075.69;4995570;28;20434;-91
2023/03/05 07:23:29;;;;;;;62.15;45.80;;;;;;;6.88;64.92;99016.38;4995272;28;20041;-90
2023/03/05 07:25:55;;;;;;;70.53;51.92;;;;;;;7.03;65.13;99031.44;4995338;28;20051;-90
2023/03/05 07:28:21;;;;;;;68.43;51.70;;;;;;;7.39;65.28;99066.78;4995509;28;20034;-91
2023/03/05 07:30:57;;;;;;;69.25;50.80;;;;;;;7.41;65.25;99067.41;4995451;28;20062;-91
2023/03/05 07:33:23;;;;;;;57.83;45.28;;;;;;;8.00;64.96;99117.78;4995372;28;20467;-91
2023/03/05 07:35:49;;;;;;;57.83;42.58;;;;;;;7.15;64.99;98970.53;4995322;28;20033;-90
2023/03/05 07:38:14;;;;;;;68.88;50.80;;;;;;;6.98;65.08;98933.03;4995493;28;20415;-91
2023/03/05 07:40:39;;;;;;;66.55;49.75;;;;;;;7.84;65.64;99075.81;4997118;28;20026;-90
2023/03/05 07:43:05;;;;;;;55.85;42.20;;;;;;;8.02;65.50;99073.75;4996013;28;20089;-91
2023/03/05 07:45:30;;;;;;;57.15;41.28;;;;;;;8.12;65.56;99084.84;5010446;28;20030;-91
2023/03/05 07:47:56;;;;;;;56.92;41.85;;;;;;;7.80;65.79;99011.44;5010085;28;20032;-91
2023/03/05 07:50:22;;;;;;;48.22;35.15;;;;;;;8.36;66.21;99089.19;4993738;28;20423;-89
2023/03/05 07:52:47;;;;;;;45.17;34.30;;;;;;;7.68;65.80;98966.34;4994981;28;20030;-90
2023/03/05 07:55:13;;;;;;;52.55;38.53;;;;;;;8.56;66.47;99100.06;4994927;28;20018;-90
2023/03/05 07:57:38;;;;;;;47.80;36.60;;;;;;;8.45;66.43;99071.53;4994993;28;20062;-91
2023/03/05 08:00:05;;;;;;;50.88;40.53;;;;;;;8.70;66.23;99106.38;5010229;28;20472;-89
2023/03/05 08:02:31;;;;;;;44.58;33.25;;;;;;;8.02;66.44;98981.72;4993645;28;20030;-88
2023/03/05 08:04:56;;;;;;;42.08;31.15;;;;;;;8.17;66.42;98997.56;4994726;28;20066;-88
2023/03/05 08:07:22;;;;;;;42.28;32.25;;;;;;;8.02;66.34;98944.09;4994995;28;20029;-88
2023/03/05 08:09:47;;;;;;;45.00;32.90;;;;;;;8.76;66.28;99045.94;4994745;28;20034;-88
2023/03/05 08:12:12;;;;;;;38.72;30.65;;;;;;;9.23;66.27;99108.06;4994735;28;20026;-88
2023/03/05 08:14:38;;;;;;;37.25;28.60;;;;;;;9.36;66.25;99100.34;4994585;28;20518;-88
2023/03/05 08:17:04;;;;;;;31.88;25.20;;;;;;;9.00;66.30;99028.31;4994627;28;20029;-87
2023/03/05 08:19:31;;;;;;;37.38;29.50;;;;;;;9.52;66.96;99102.00;4993347;28;20027;-87
2023/03/05 08:21:56;;;;;;;35.72;28.27;;;;;;;8.98;66.07;98996.09;4994808;28;20487;-88
2023/03/05 08:24:28;;;;;;;37.72;29.13;;;;;;;8.78;66.54;98946.56;4994623;28;20061;-88
2023/03/05 08:26:56;;;;;;;33.75;26.48;;;;;;;9.38;66.36;99048.31;4994877;28;20037;-88
2023/03/05 08:29:22;;;;;;;34.28;24.90;;;;;;;9.11;65.99;98970.75;4992822;28;20423;-87
2023/03/05 08:31:48;;;;;;;42.05;31.45;;;;;;;9.61;65.88;99050.00;4994602;28;20030;-87
2023/03/05 08:34:14;;;;;;;38.25;27.63;;;;;;;9.61;65.70;99057.91;4994312;28;20441;-88
2023/03/05 08:36:39;;;;;;;33.20;25.73;;;;;;;9.83;65.37;99072.81;4992930;28;20030;-87
2023/03/05 08:39:07;;;;;;;32.33;24.92;;;;;;;9.60;65.42;99029.91;4994280;28;20022;-88
2023/03/05 08:41:32;;;;;;;35.13;26.48;;;;;;;10.26;65.17;99109.84;4994083;28;20030;-87
2023/03/05 08:43:58;;;;;;;35.40;27.42;;;;;;;9.31;64.72;98980.72;4994162;28;20022;-88
2023/03/05 08:46:24;;;;;;;30.80;24.58;;;;;;;10.38;64.83;99105.72;4994038;28;20478;-87
2023/03/05 08:48:49;;;;;;;30.83;23.13;;;;;;;8.80;64.56;98891.94;4992772;28;20027;-87
2023/03/05 08:51:18;;;;;;;29.17;24.15;;;;;;;9.65;64.20;98959.03;4994025;28;20114;-88
2023/03/05 08:53:44;;;;;;;28.85;22.70;;;;;;;10.56;64.26;99108.78;4994041;28;20840;-88
2023/03/05 08:56:10;;;;;;;30.30;22.77;;;;;;;10.23;64.02;99036.34;4994052;28;20022;-87
2023/03/05 08:58:36;;;;;;;31.33;24.13;;;;;;;10.86;63.20;99100.72;4993838;28;20030;-87
2023/03/05 09:01:02;;;;;;;26.15;21.58;;;;;;;10.95;63.64;99097.75;4992563;28;20104;-87
2023/03/05 09:03:28;;;;;;;23.45;18.85;;;;;;;11.07;62.49;99095.38;4992615;28;20068;-87
2023/03/05 09:05:58;;;;;;;23.60;18.77;;;;;;;10.54;62.08;98980.63;4993619;28;20058;-87
2023/03/05 09:08:23;;;;;;;24.33;19.67;;;;;;;10.34;61.95;98948.78;4992452;28;20084;-87
2023/03/05 09:10:49;;;;;;;25.23;19.55;;;;;;;11.21;61.68;99088.41;4993601;28;20109;-87
2023/03/05 09:13:14;;;;;;;27.90;20.02;;;;;;;10.61;61.70;98997.34;4993307;28;20022;-87
2023/03/05 09:15:40;;;;;;;23.77;17.50;;;;;;;11.00;61.51;99041.69;4991959;28;20022;-87
2023/03/05 09:18:07;;;;;;;23.30;18.33;;;;;;;10.83;60.62;98994.44;4993259;28;20038;-87
2023/03/05 09:20:34;;;;;;;22.55;17.33;;;;;;;11.27;60.68;99062.03;4993222;28;20060;-87
2023/03/05 09:22:59;;;;;;;24.20;19.40;;;;;;;11.04;60.41;99035.00;4993069;28;20030;-86
2023/03/05 09:25:25;;;;;;;23.17;18.85;;;;;;;10.56;60.64;98981.25;4992792;28;20085;-87
2023/03/05 09:27:50;;;;;;;20.63;18.17;;;;;;;10.52;61.23;98980.81;4991869;28;20088;-87
2023/03/05 09:30:16;;;;;;;24.77;19.10;;;;;;;10.89;60.25;99013.19;4993047;28;20420;-86
2023/03/05 09:32:42;;;;;;;21.77;17.25;;;;;;;10.63;60.87;98982.94;4993022;28;20022;-87
2023/03/05 09:35:08;;;;;;;21.70;17.73;;;;;;;10.92;59.95;99026.81;4993028;28;20037;-87
2023/03/05 09:37:33;;;;;;;22.85;18.67;;;;;;;11.14;60.71;99046.06;4992813;28;20495;-87
2023/03/05 09:39:59;;;;;;;24.05;19.17;;;;;;;11.32;60.78;99064.09;5007967;28;20026;-87
2023/03/05 09:42:43;;;;;;;22.33;18.67;;;;;;;11.35;59.88;99068.97;4992599;28;20053;-88
2023/03/05 09:45:09;;;;;;;19.95;17.25;;;;;;;11.36;60.40;99062.69;4991516;28;20066;-87
2023/03/05 09:47:47;;;;;;;19.10;16.20;;;;;;;11.34;59.47;99054.13;4991562;28;20057;-87
2023/03/05 09:50:24;;;;;;;18.00;15.30;;;;;;;11.34;59.85;99046.19;4992839;28;20403;-86
2023/03/05 09:52:57;;;;;;;19.23;17.17;;;;;;;11.35;60.24;99042.56;4991370;28;20034;-87
2023/03/05 09:55:22;;;;;;;18.08;16.02;;;;;;;11.37;59.80;99032.59;4991434;28;20054;-87
2023/03/05 09:57:53;;;;;;;22.67;17.15;;;;;;;11.37;59.66;99065.13;4993140;28;20108;-86
2023/03/05 10:00:34;;;;;;;21.67;18.13;;;;;;;11.37;59.44;99022.03;4992729;28;20030;-87
2023/03/05 10:03:05;;;;;;;24.20;19.15;;;;;;;10.99;59.77;98956.34;4992529;28;20042;-87
2023/03/05 10:05:52;;;;;;;23.73;18.58;;;;;;;11.49;59.12;99009.06;4992476;28;20037;-87
2023/03/05 10:08:21;;;;;;;19.35;16.35;;;;;;;11.35;59.60;98968.53;4992403;28;20030;-87
2023/03/05 10:10:51;;;;;;;21.42;17.33;;;;;;;11.33;59.00;98968.75;4992375;28;20030;-87
2023/03/05 10:13:31;;;;;;;21.27;16.73;;;;;;;11.69;59.47;99002.84;4992149;28;20030;-88
2023/03/05 10:16:18;;;;;;;22.23;17.10;;;;;;;11.78;59.05;98998.22;4992420;28;20474;-86
2023/03/05 10:19:15;;;;;;;22.33;18.15;;;;;;;11.54;59.00;98951.13;4991041;28;20411;-86
2023/03/05 10:22:11;;;;;;;24.30;18.08;;;;;;;11.94;58.98;98989.94;4992104;28;20033;-86
2023/03/05 10:24:44;;;;;;;21.63;15.52;;;;;;;11.97;58.71;98999.31;4991880;28;20053;-87
2023/03/05 10:27:24;;;;;;;16.52;14.30;;;;;;;12.02;57.98;98981.81;4992010;28;20034;-86
2023/03/05 10:30:20;;;;;;;18.42;14.88;;;;;;;12.06;57.43;98969.81;4992149;28;20389;-86
2023/03/05 10:33:09;;;;;;;15.75;13.63;;;;;;;12.07;57.34;98966.16;4990880;28;20026;-86
2023/03/05 10:35:43;;;;;;;16.33;12.27;;;;;;;12.08;57.49;98961.69;4990773;28;20561;-87
2023/03/05 10:38:44;;;;;;;19.33;15.10;;;;;;;12.00;56.33;98952.09;4990560;28;20089;-86
2023/03/05 10:41:33;;;;;;;19.42;13.70;;;;;;;11.90;57.10;98924.41;4992123;28;20034;-86
2023/03/05 10:44:20;;;;;;;19.23;14.00;;;;;;;12.17;57.11;98960.47;4991951;28;20388;-87
2023/03/05 10:46:47;;;;;;;16.23;13.07;;;;;;;12.13;56.70;98959.25;4992083;28;20108;-87
2023/03/05 10:49:27;;;;;;;18.33;13.65;;;;;;;11.63;56.66;98887.28;4992271;28;20038;-86
2023/03/05 10:52:14;;;;;;;20.40;15.30;;;;;;;12.12;56.60;98927.69;4992109;28;20108;-86
2023/03/05 10:54:42;;;;;;;18.98;15.45;;;;;;;12.39;56.42;98948.66;4997277;28;20514;-86
2023/03/05 10:57:22;;;;;;;16.90;13.55;;;;;;;12.56;55.54;98948.25;4998018;28;20499;-84
2023/03/05 10:59:49;;;;;;;16.20;13.52;;;;;;;12.74;55.74;98945.81;4994347;28;20034;-84
2023/03/05 11:02:16;;;;;;;20.77;14.73;;;;;;;12.93;55.29;98933.53;4996804;28;20472;-84
2023/03/05 11:04:42;;;;;;;14.95;12.45;;;;;;;11.67;54.88;98727.22;4996747;28;20038;-84
2023/03/05 11:07:29;;;;;;;19.27;14.55;;;;;;;12.99;54.54;98922.91;4998138;28;20471;-84
2023/03/05 11:10:05;;;;;;;16.13;13.20;;;;;;;12.88;54.47;98906.84;4993877;28;20030;-83
2023/03/05 11:12:36;;;;;;;15.65;13.93;;;;;;;12.27;54.48;98835.66;4985186;28;20026;-84
2023/03/05 11:15:08;;;;;;;16.53;14.30;;;;;;;12.78;55.02;98917.06;5012287;28;20033;-84
2023/03/05 11:17:47;;;;;;;16.10;14.18;;;;;;;12.18;54.85;98839.53;5030562;28;20084;-84
2023/03/05 11:20:19;;;;;;;18.95;15.35;;;;;;;12.61;54.93;98912.19;4998370;28;20038;-84
2023/03/05 11:23:05;;;;;;;17.40;14.63;;;;;;;12.25;54.51;98858.88;4996794;28;20034;-84
2023/03/05 11:25:32;;;;;;;19.75;14.75;;;;;;;12.52;55.50;98907.31;4997858;28;20046;-84
2023/03/05 11:28:00;;;;;;;19.52;16.63;;;;;;;12.55;55.12;98909.53;4996643;28;20022;-84